Time;durP1;ratioP1;P1;durP2;ratioP2;P2;SDS_P1;SDS_P2;PMS_P1;PMS_P2;Temp;Humidity;BMP_temperature;BMP_pressure;BME280_temperature;BME280_humidity;BME280_pressure;Samples;Min_cycle;Max_cycle;Signal;HPM_P1;HPM_P2
2022/10/04 00:02:16;;;;;;;;;;;;;;;;;;5096205;28;19969;-88
2022/10/04 00:04:43;;;;;;;;;;;;;;;;;;5079253;28;19976;-88
2022/10/04 00:07:12;;;;;;;;;;;;;;;;;;5096320;28;19916;-88
2022/10/04 00:09:42;;;;;;;;;;;;;;;;;;5097170;28;20225;-88
2022/10/04 00:12:13;;;;;;;;;;;;;;;;;;5096835;28;19939;-88
2022/10/04 00:14:39;;;;;;;;;;;;;;;;;;5096025;28;19916;-88
2022/10/04 00:17:11;;;;;;;;;;;;;;;;;;5078880;28;20011;-88
2022/10/04 00:19:44;;;;;;;;;;;;;;;;;;5096302;28;19916;-88
2022/10/04 00:22:11;;;;;;;;;;;;;;;;;;5096481;28;19916;-89
2022/10/04 00:24:36;;;;;;;;;;;;;;;;;;5097087;28;19964;-90
2022/10/04 00:27:15;;;;;;;;;;;;;;;;;;5107288;28;19984;-89
2022/10/04 00:29:41;;;;;;;;;;;;;;;;;;5100275;28;19916;-89
2022/10/04 00:32:12;;;;;;;;;;;;;;;;;;5079195;28;19923;-89
2022/10/04 00:34:46;;;;;;;;;;;;;;;;;;5095854;28;19920;-89
2022/10/04 00:37:15;;;;;;;;;;;;;;;;;;5095946;28;19916;-89
2022/10/04 00:39:43;;;;;;;;;;;;;;;;;;5095981;28;19923;-89
2022/10/04 00:42:16;;;;;;;;;;;;;;;;;;5096038;28;19924;-86
2022/10/04 00:44:46;;;;;;;;;;;;;;;;;;5095832;28;19985;-89
2022/10/04 00:47:23;;;;;;;;;;;;;;;;;;5096373;28;19928;-89
2022/10/04 00:49:50;;;;;;;;;;;;;;;;;;5097084;28;19938;-89
2022/10/04 00:52:19;;;;;;;;;;;;;;;;;;5095576;28;19946;-88
2022/10/04 00:54:49;;;;;;;;;;;;;;;;;;5095268;28;19986;-88
2022/10/04 00:57:33;;;;;;;;;;;;;;;;;;5095628;28;19950;-89
2022/10/04 01:00:00;;;;;;;;;;;;;;;;;;5095237;28;19929;-88
2022/10/04 01:02:36;;;;;;;;;;;;;;;;;;5095313;28;20248;-89
2022/10/04 01:05:09;;;;;;;;;;;;;;;;;;5095600;28;19916;-88
2022/10/04 01:07:39;;;;;;;;;;;;;;;;;;5095614;28;20034;-89
2022/10/04 01:10:06;;;;;;;;;;;;;;;;;;5096351;28;20257;-89
2022/10/04 01:12:32;;;;;;;;;;;;;;;;;;5078832;28;19923;-90
2022/10/04 01:15:14;;;;;;;;;;;;;;;;;;5095266;28;19916;-89
2022/10/04 01:17:40;;;;;;;;;;;;;;;;;;5079311;28;20321;-89
2022/10/04 01:20:23;;;;;;;;;;;;;;;;;;5096715;28;19916;-89
2022/10/04 01:22:49;;;;;;;;;;;;;;;;;;5078294;28;19916;-89
2022/10/04 01:25:34;;;;;;;;;;;;;;;;;;5096307;28;19916;-88
2022/10/04 01:27:59;;;;;;;;;;;;;;;;;;5095122;28;19919;-86
2022/10/04 01:30:25;;;;;;;;;;;;;;;;;;5095080;28;20345;-90
2022/10/04 01:32:50;;;;;;;;;;;;;;;;;;5096715;28;19988;-88
2022/10/04 01:35:19;;;;;;;;;;;;;;;;;;5095141;28;19916;-89
2022/10/04 01:37:44;;;;;;;;;;;;;;;;;;5095039;28;19938;-89
2022/10/04 01:40:10;;;;;;;;;;;;;;;;;;5095798;28;19920;-87
2022/10/04 01:42:38;;;;;;;;;;;;;;;;;;5078178;28;19993;-86
2022/10/04 01:45:03;;;;;;;;;;;;;;;;;;5094409;28;19916;-88
2022/10/04 01:47:30;;;;;;;;;;;;;;;;;;5096044;28;19920;-88
2022/10/04 01:49:57;;;;;;;;;;;;;;;;;;5095152;28;20060;-89
2022/10/04 01:52:28;;;;;;;;;;;;;;;;;;5095417;28;19916;-89
2022/10/04 01:55:04;;;;;;;;;;;;;;;;;;5095714;28;19974;-90
2022/10/04 01:57:36;;;;;;;;;;;;;;;;;;5095220;28;19922;-88
2022/10/04 02:00:04;;;;;;;;;;;;;;;;;;5095629;28;19981;-89
2022/10/04 02:02:31;;;;;;;;;;;;;;;;;;5095280;28;19916;-89
2022/10/04 02:04:56;;;;;;;;;;;;;;;;;;5106186;28;19916;-89
2022/10/04 02:07:22;;;;;;;;;;;;;;;;;;5104450;28;20210;-88
2022/10/04 02:09:48;;;;;;;;;;;;;;;;;;5103141;28;19951;-89
2022/10/04 02:12:15;;;;;;;;;;;;;;;;;;5102614;28;19923;-88
2022/10/04 02:14:42;;;;;;;;;;;;;;;;;;5104291;28;19916;-88
2022/10/04 02:17:09;;;;;;;;;;;;;;;;;;5101664;28;20301;-87
2022/10/04 02:19:41;;;;;;;;;;;;;;;;;;5102732;28;19979;-88
2022/10/04 02:22:10;;;;;;;;;;;;;;;;;;5101356;28;19927;-87
2022/10/04 02:24:40;;;;;;;;;;;;;;;;;;5100205;28;19920;-90
2022/10/04 02:27:05;;;;;;;;;;;;;;;;;;5101351;28;19944;-86
2022/10/04 02:29:30;;;;;;;;;;;;;;;;;;5100119;28;19946;-87
2022/10/04 02:34:40;;;;;;;;;;;;;;;;;;5098211;28;19965;-88
2022/10/04 02:37:05;;;;;;;;;;;;;;;;;;5097343;28;19916;-85
2022/10/04 02:39:33;;;;;;;;;;;;;;;;;;5097969;28;19970;-88
2022/10/04 02:42:03;;;;;;;;;;;;;;;;;;5097818;28;19945;-87
2022/10/04 02:44:41;;;;;;;;;;;;;;;;;;5097270;28;20310;-87
2022/10/04 02:47:07;;;;;;;;;;;;;;;;;;5098250;28;19939;-89
2022/10/04 02:49:40;;;;;;;;;;;;;;;;;;5098215;28;19923;-88
2022/10/04 02:52:09;;;;;;;;;;;;;;;;;;5078083;28;19920;-87
2022/10/04 02:54:40;;;;;;;;;;;;;;;;;;5095586;28;19916;-90
2022/10/04 02:57:10;;;;;;;;;;;;;;;;;;5096197;28;19923;-88
2022/10/04 02:59:37;;;;;;;;;;;;;;;;;;5081445;28;19916;-87
2022/10/04 03:02:03;;;;;;;;;;;;;;;;;;5098571;28;19930;-89
2022/10/04 03:04:38;;;;;;;;;;;;;;;;;;5098282;28;20006;-89
2022/10/04 03:07:04;;;;;;;;;;;;;;;;;;5099875;28;19920;-89
2022/10/04 03:09:32;;;;;;;;;;;;;;;;;;5098594;28;19946;-89
2022/10/04 03:11:57;;;;;;;;;;;;;;;;;;5100791;28;19916;-89
2022/10/04 03:14:26;;;;;;;;;;;;;;;;;;5101844;28;19944;-90
2022/10/04 03:16:56;;;;;;;;;;;;;;;;;;5102475;28;19916;-87
2022/10/04 03:19:21;;;;;;;;;;;;;;;;;;5108652;28;19916;-87
2022/10/04 03:21:48;;;;;;;;;;;;;;;;;;5091226;28;19927;-87
2022/10/04 03:24:20;;;;;;;;;;;;;;;;;;5117741;28;19916;-89
2022/10/04 03:26:46;;;;;;;;;;;;;;;;;;5117963;28;19922;-88
2022/10/04 03:29:15;;;;;;;;;;;;;;;;;;5118109;28;19994;-89
2022/10/04 03:31:42;;;;;;;;;;;;;;;;;;5115260;28;20266;-87
2022/10/04 03:34:20;;;;;;;;;;;;;;;;;;5115759;28;19950;-87
2022/10/04 03:36:49;;;;;;;;;;;;;;;;;;5103554;28;19973;-88
2022/10/04 03:39:20;;;;;;;;;;;;;;;;;;5101557;28;19916;-87
2022/10/04 03:41:46;;;;;;;;;;;;;;;;;;5114533;28;19920;-86
2022/10/04 03:44:20;;;;;;;;;;;;;;;;;;5111194;28;19916;-87
2022/10/04 03:46:46;;;;;;;;;;;;;;;;;;5098406;28;19932;-87
2022/10/04 03:49:21;;;;;;;;;;;;;;;;;;5097464;28;20321;-88
2022/10/04 03:51:47;;;;;;;;;;;;;;;;;;5095939;28;19912;-88
2022/10/04 03:54:15;;;;;;;;;;;;;;;;;;5097499;28;19923;-88
2022/10/04 03:56:41;;;;;;;;;;;;;;;;;;5097703;28;19934;-87
2022/10/04 03:59:06;;;;;;;;;;;;;;;;;;5097032;28;19916;-88
2022/10/04 04:01:38;;;;;;;;;;;;;;;;;;5098581;28;19920;-88
2022/10/04 04:04:06;;;;;;;;;;;;;;;;;;5098428;28;19929;-89
2022/10/04 04:06:36;;;;;;;;;;;;;;;;;;5099580;28;20015;-89
2022/10/04 04:09:01;;;;;;;;;;;;;;;;;;5089351;28;20265;-81
2022/10/04 04:11:27;;;;;;;;;;;;;;;;;;5093900;28;19923;-80
2022/10/04 04:14:07;;;;;;;;;;;;;;;;;;5096178;28;19923;-78
2022/10/04 04:16:32;;;;;;;;;;;;;;;;;;5095560;28;19916;-79
2022/10/04 04:18:58;;;;;;;;;;;;;;;;;;5094432;28;19920;-79
2022/10/04 04:21:24;;;;;;;;;;;;;;;;;;5094742;28;20303;-80
2022/10/04 04:23:50;;;;;;;;;;;;;;;;;;5095491;28;19916;-80
2022/10/04 04:26:21;;;;;;;;;;;;;;;;;;5094789;28;19916;-80
2022/10/04 04:28:48;;;;;;;;;;;;;;;;;;5095734;28;20344;-78
2022/10/04 04:31:20;;;;;;;;;;;;;;;;;;5092603;28;19916;-78
2022/10/04 04:33:58;;;;;;;;;;;;;;;;;;5095829;28;20006;-79
2022/10/04 04:36:25;;;;;;;;;;;;;;;;;;5094700;28;19927;-78
2022/10/04 04:41:34;;;;;;;;;;;;;;;;;;5089946;28;19974;-79
2022/10/04 04:43:59;;;;;;;;;;;;;;;;;;5074083;28;19963;-77
2022/10/04 04:46:25;;;;;;;;;;;;;;;;;;5037100;28;19925;-78
2022/10/04 04:48:52;;;;;;;;;;;;;;;;;;5060403;28;19955;-77
2022/10/04 04:51:18;;;;;;;;;;;;;;;;;;5074898;28;20158;-78
2022/10/04 04:53:44;;;;;;;;;;;;;;;;;;5055962;28;20364;-77
2022/10/04 04:56:09;;;;;;;;;;;;;;;;;;5035827;28;19920;-77
2022/10/04 04:58:36;;;;;;;;;;;;;;;;;;5052295;28;20491;-78
2022/10/04 05:01:23;;;;;;;;;;;;;;;;;;5064415;28;19931;-79
2022/10/04 05:04:03;;;;;;;;;;;;;;;;;;5057234;28;20015;-78
2022/10/04 05:06:29;;;;;;;;;;;;;;;;;;5054915;28;19947;-79
2022/10/04 05:08:55;;;;;;;;;;;;;;;;;;5067078;28;19921;-78
2022/10/04 05:11:20;;;;;;;;;;;;;;;;;;5053742;28;20071;-78
2022/10/04 05:14:08;;;;;;;;;;;;;;;;;;5072583;28;19920;-78
2022/10/04 05:16:34;;;;;;;;;;;;;;;;;;5048393;28;19924;-78
2022/10/04 05:19:00;;;;;;;;;;;;;;;;;;5071002;28;20300;-77
2022/10/04 05:21:27;;;;;;;;;;;;;;;;;;5073091;28;19916;-77
2022/10/04 05:23:52;;;;;;;;;;;;;;;;;;5075939;28;19916;-80
2022/10/04 05:26:21;;;;;;;;;;;;;;;;;;5075600;28;19936;-81
2022/10/04 05:28:48;;;;;;;;;;;;;;;;;;5076285;28;19989;-80
2022/10/04 05:31:20;;;;;;;;;;;;;;;;;;5072224;28;19927;-78
2022/10/04 05:33:46;;;;;;;;;;;;;;;;;;5071381;28;20336;-78
2022/10/04 05:36:25;;;;;;;;;;;;;;;;;;5059938;28;19924;-78
2022/10/04 05:39:08;;;;;;;;;;;;;;;;;;5056226;28;19989;-78
2022/10/04 05:41:38;;;;;;;;;;;;;;;;;;5078279;28;19920;-78
2022/10/04 05:44:16;;;;;;;;;;;;;;;;;;5097000;28;19920;-78
2022/10/04 05:46:43;;;;;;;;;;;;;;;;;;5098421;28;19965;-80
2022/10/04 05:49:12;;;;;;;;;;;;;;;;;;5078347;28;20325;-79
2022/10/04 05:51:48;;;;;;;;;;;;;;;;;;5101558;28;20372;-79
2022/10/04 05:54:13;;;;;;;;;;;;;;;;;;5089851;28;19999;-77
2022/10/04 05:56:48;;;;;;;;;;;;;;;;;;5102513;28;19925;-78
2022/10/04 05:59:14;;;;;;;;;;;;;;;;;;5108176;28;21027;-79
2022/10/04 06:01:54;;;;;;;;;;;;;;;;;;5089995;28;19978;-82
2022/10/04 06:04:46;;;;;;;;;;;;;;;;;;5072884;28;19916;-79
2022/10/04 06:07:23;;;;;;;;;;;;;;;;;;5071249;28;20019;-77
2022/10/04 06:10:07;;;;;;;;;;;;;;;;;;5107204;28;20003;-78
2022/10/04 06:12:32;;;;;;;;;;;;;;;;;;5090311;28;20407;-76
2022/10/04 06:15:14;;;;;;;;;;;;;;;;;;5089404;28;19963;-81
2022/10/04 06:17:42;;;;;;;;;;;;;;;;;;5103449;28;19924;-76
2022/10/04 06:20:33;;;;;;;;;;;;;;;;;;5078753;28;19920;-78
2022/10/04 06:22:59;;;;;;;;;;;;;;;;;;5090958;28;19920;-79
2022/10/04 06:25:33;;;;;;;;;;;;;;;;;;5096005;28;19920;-76
2022/10/04 06:28:14;;;;;;;;;;;;;;;;;;5071272;28;19920;-79
2022/10/04 06:30:57;;;;;;;;;;;;;;;;;;5096432;28;19923;-78
2022/10/04 06:33:28;;;;;;;;;;;;;;;;;;5095784;28;19920;-77
2022/10/04 06:35:57;;;;;;;;;;;;;;;;;;5105910;28;19920;-78
2022/10/04 06:38:31;;;;;;;;;;;;;;;;;;5077840;28;19927;-77
2022/10/04 06:40:57;;;;;;;;;;;;;;;;;;5097025;28;20031;-76
2022/10/04 06:43:31;;;;;;;;;;;;;;;;;;5099797;28;20288;-77
2022/10/04 06:46:16;;;;;;;;;;;;;;;;;;5119683;28;19916;-77
2022/10/04 06:48:56;;;;;;;;;;;;;;;;;;5098323;28;19927;-78
2022/10/04 06:51:21;;;;;;;;;;;;;;;;;;5103497;28;19920;-79
2022/10/04 06:54:05;;;;;;;;;;;;;;;;;;5081358;28;19969;-78
2022/10/04 06:56:34;;;;;;;;;;;;;;;;;;5109324;28;20014;-82
2022/10/04 06:59:09;;;;;;;;;;;;;;;;;;5115288;28;20023;-80
2022/10/04 07:01:35;;;;;;;;;;;;;;;;;;5097496;28;20293;-82
2022/10/04 07:04:01;;;;;;;;;;;;;;;;;;5104577;28;19924;-79
2022/10/04 07:06:34;;;;;;;;;;;;;;;;;;5101026;28;19924;-79
2022/10/04 07:09:01;;;;;;;;;;;;;;;;;;5099646;28;20027;-76
2022/10/04 07:11:36;;;;;;;;;;;;;;;;;;5116176;28;19915;-81
2022/10/04 07:14:01;;;;;;;;;;;;;;;;;;5106283;28;19920;-78
2022/10/04 07:16:31;;;;;;;;;;;;;;;;;;5102515;28;19920;-81
2022/10/04 07:18:57;;;;;;;;;;;;;;;;;;5090400;28;20326;-82
2022/10/04 07:21:25;;;;;;;;;;;;;;;;;;5095266;28;19924;-79
2022/10/04 07:23:55;;;;;;;;;;;;;;;;;;5096619;28;19915;-80
2022/10/04 07:26:32;;;;;;;;;;;;;;;;;;5078790;28;19916;-79
2022/10/04 07:31:43;;;;;;;;;;;;;;;;;;5100154;28;20072;-81
2022/10/04 07:34:14;;;;;;;;;;;;;;;;;;5077824;28;19916;-80
2022/10/04 07:36:49;;;;;;;;;;;;;;;;;;5072812;28;19920;-81
2022/10/04 07:39:38;;;;;;;;;;;;;;;;;;5083553;28;20084;-81
2022/10/04 07:42:10;;;;;;;;;;;;;;;;;;5103850;28;19985;-81
2022/10/04 07:44:39;;;;;;;;;;;;;;;;;;5074713;28;20003;-80
2022/10/04 07:47:05;;;;;;;;;;;;;;;;;;5075458;28;19922;-80
2022/10/04 07:49:35;;;;;;;;;;;;;;;;;;5073471;28;20248;-79
2022/10/04 07:52:03;;;;;;;;;;;;;;;;;;5071381;28;19920;-80
2022/10/04 07:54:32;;;;;;;;;;;;;;;;;;5064908;28;20014;-80
2022/10/04 07:57:05;;;;;;;;;;;;;;;;;;5070224;28;20292;-80
2022/10/04 07:59:55;;;;;;;;;;;;;;;;;;5058757;28;19924;-80
2022/10/04 08:02:32;;;;;;;;;;;;;;;;;;5053262;28;19924;-82
2022/10/04 08:05:01;;;;;;;;;;;;;;;;;;5070932;28;19974;-82
2022/10/04 08:07:41;;;;;;;;;;;;;;;;;;5069228;28;20281;-81
2022/10/04 08:10:16;;;;;;;;;;;;;;;;;;5056336;28;19952;-81
2022/10/04 08:12:51;;;;;;;;;;;;;;;;;;5055091;28;20081;-79
2022/10/04 08:15:33;;;;;;;;;;;;;;;;;;5057294;28;19921;-80
2022/10/04 08:18:19;;;;;;;;;;;;;;;;;;5054579;28;19986;-79
2022/10/04 08:20:49;;;;;;;;;;;;;;;;;;5071765;28;20249;-82
2022/10/04 08:23:24;;;;;;;;;;;;;;;;;;5071777;28;20244;-79
2022/10/04 08:25:55;;;;;;;;;;;;;;;;;;5073209;28;19920;-79
2022/10/04 08:31:33;;;;;;;;;;;;;;;;;;5074603;28;20158;-80
2022/10/04 08:33:58;;;;;;;;;;;;;;;;;;5075060;28;19923;-81
2022/10/04 08:36:27;;;;;;;;;;;;;;;;;;5073902;28;20093;-81
2022/10/04 08:38:55;;;;;;;;;;;;;;;;;;5077269;28;19923;-81
2022/10/04 08:41:23;;;;;;;;;;;;;;;;;;5077149;28;19917;-80
2022/10/04 08:43:48;;;;;;;;;;;;;;;;;;5077510;28;20027;-83
2022/10/04 08:46:32;;;;;;;;;;;;;;;;;;5077127;28;20350;-80
2022/10/04 08:49:07;;;;;;;;;;;;;;;;;;5075558;28;19920;-76
2022/10/04 08:51:39;;;;;;;;;;;;;;;;;;5063166;28;20330;-80
2022/10/04 08:54:16;;;;;;;;;;;;;;;;;;5073825;28;19916;-77
2022/10/04 08:56:51;;;;;;;;;;;;;;;;;;5074341;28;19924;-77
2022/10/04 08:59:22;;;;;;;;;;;;;;;;;;5072212;28;19981;-81
2022/10/04 09:01:47;;;;;;;;;;;;;;;;;;5073077;28;19950;-79
2022/10/04 09:04:15;;;;;;;;;;;;;;;;;;5071553;28;21288;-80
2022/10/04 09:06:40;;;;;;;;;;;;;;;;;;5072059;28;19942;-80
2022/10/04 09:09:35;;;;;;;;;;;;;;;;;;5070046;28;20346;-81
2022/10/04 09:12:04;;;;;;;;;;;;;;;;;;5057020;28;20417;-78
2022/10/04 09:14:50;;;;;;;;;;;;;;;;;;5069359;28;19916;-79
2022/10/04 09:17:18;;;;;;;;;;;;;;;;;;5070731;28;19917;-81
2022/10/04 09:19:46;;;;;;;;;;;;;;;;;;5071348;28;19959;-81
2022/10/04 09:22:18;;;;;;;;;;;;;;;;;;5072905;28;19923;-83
2022/10/04 09:24:50;;;;;;;;;;;;;;;;;;5054891;28;19962;-80
2022/10/04 09:27:18;;;;;;;;;;;;;;;;;;5077331;28;19927;-79
2022/10/04 09:29:53;;;;;;;;;;;;;;;;;;5074043;28;19931;-80
2022/10/04 09:32:22;;;;;;;;;;;;;;;;;;5072832;28;19992;-82
2022/10/04 09:35:05;;;;;;;;;;;;;;;;;;5076563;28;19924;-83
2022/10/04 09:37:36;;;;;;;;;;;;;;;;;;5070977;28;19921;-81
2022/10/04 09:43:50;;;;;;;;;;;;;;;;;;5085644;28;19920;-83
2022/10/04 09:46:41;;;;;;;;;;;;;;;;;;5048245;28;20223;-79
2022/10/04 09:49:43;;;;;;;;;;;;;;;;;;5088463;28;20357;-82
2022/10/04 09:52:41;;;;;;;;;;;;;;;;;;5090182;28;19965;-83
2022/10/04 09:55:22;;;;;;;;;;;;;;;;;;5078320;28;20019;-80
2022/10/04 09:57:47;;;;;;;;;;;;;;;;;;5072193;28;19931;-81
2022/10/04 10:00:20;;;;;;;;;;;;;;;;;;5088008;28;19924;-83
2022/10/04 10:03:05;;;;;;;;;;;;;;;;;;5088977;28;19916;-79
2022/10/04 10:05:47;;;;;;;;;;;;;;;;;;5089725;28;19916;-79
2022/10/04 10:08:35;;;;;;;;;;;;;;;;;;5073298;28;20333;-79
2022/10/04 10:14:32;;;;;;;;;;;;;;;;;;5042493;28;19926;-81
2022/10/04 10:17:14;;;;;;;;;;;;;;;;;;5052882;28;19928;-82
2022/10/04 10:19:45;;;;;;;;;;;;;;;;;;5098104;28;20325;-80
2022/10/04 10:22:27;;;;;;;;;;;;;;;;;;5091479;28;19920;-81
2022/10/04 10:25:12;;;;;;;;;;;;;;;;;;5087642;28;19978;-80
2022/10/04 10:27:56;;;;;;;;;;;;;;;;;;5098333;28;19928;-80
2022/10/04 10:30:22;;;;;;;;;;;;;;;;;;5097393;28;19920;-78
2022/10/04 10:33:07;;;;;;;;;;;;;;;;;;5091339;28;19967;-81
2022/10/04 10:35:47;;;;;;;;;;;;;;;;;;5090090;28;20011;-80
2022/10/04 10:38:34;;;;;;;;;;;;;;;;;;5084888;28;19950;-81
2022/10/04 10:41:14;;;;;;;;;;;;;;;;;;5090302;28;19956;-84
2022/10/04 10:43:50;;;;;;;;;;;;;;;;;;5090262;28;19962;-76
2022/10/04 10:46:22;;;;;;;;;;;;;;;;;;5087172;28;19999;-76
2022/10/04 10:48:47;;;;;;;;;;;;;;;;;;5070542;28;19921;-76
2022/10/04 10:51:19;;;;;;;;;;;;;;;;;;5070216;28;20283;-75
2022/10/04 10:54:04;;;;;;;;;;;;;;;;;;5086441;28;19916;-77
2022/10/04 10:56:44;;;;;;;;;;;;;;;;;;5076128;28;20482;-75
2022/10/04 10:59:49;;;;;;;;;;;;;;;;;;5087672;28;19923;-76
2022/10/04 11:02:35;;;;;;;;;;;;;;;;;;5089872;28;19916;-76
2022/10/04 11:05:19;;;;;;;;;;;;;;;;;;5088473;28;20236;-75
2022/10/04 11:07:54;;;;;;;;;;;;;;;;;;5088995;28;19916;-76
2022/10/04 11:10:28;;;;;;;;;;;;;;;;;;5106448;28;19916;-78
2022/10/04 11:12:59;;;;;;;;;;;;;;;;;;5090551;28;20245;-76
2022/10/04 11:15:43;;;;;;;;;;;;;;;;;;5089585;28;19916;-75
2022/10/04 11:18:23;;;;;;;;;;;;;;;;;;5090233;28;19927;-76
2022/10/04 11:21:07;;;;;;;;;;;;;;;;;;5090150;28;20060;-77
2022/10/04 11:23:36;;;;;;;;;;;;;;;;;;5090889;28;19912;-76
2022/10/04 11:26:04;;;;;;;;;;;;;;;;;;5092126;28;19944;-78
2022/10/04 11:28:50;;;;;;;;;;;;;;;;;;5090986;28;20010;-75
2022/10/04 11:31:34;;;;;;;;;;;;;;;;;;5074007;28;19948;-78
2022/10/04 11:34:18;;;;;;;;;;;;;;;;;;5085529;28;19916;-78
2022/10/04 11:36:49;;;;;;;;;;;;;;;;;;5090291;28;19920;-76
2022/10/04 11:39:17;;;;;;;;;;;;;;;;;;5091500;28;19971;-77
2022/10/04 11:41:47;;;;;;;;;;;;;;;;;;5086597;28;19920;-76
2022/10/04 11:44:30;;;;;;;;;;;;;;;;;;5072471;28;20011;-77
2022/10/04 11:46:59;;;;;;;;;;;;;;;;;;5070412;28;19912;-78
2022/10/04 11:49:34;;;;;;;;;;;;;;;;;;5053699;28;19927;-78
2022/10/04 11:52:15;;;;;;;;;;;;;;;;;;5053015;28;19919;-79
2022/10/04 11:55:05;;;;;;;;;;;;;;;;;;5073164;28;19920;-78
2022/10/04 11:57:31;;;;;;;;;;;;;;;;;;5044975;28;19943;-78
2022/10/04 12:00:05;;;;;;;;;;;;;;;;;;5069689;28;20356;-78
2022/10/04 12:02:49;;;;;;;;;;;;;;;;;;5087816;28;19977;-77
2022/10/04 12:05:33;;;;;;;;;;;;;;;;;;5092436;28;20002;-77
2022/10/04 12:08:11;;;;;;;;;;;;;;;;;;5075950;28;20016;-77
2022/10/04 12:10:37;;;;;;;;;;;;;;;;;;5071791;28;20176;-76
2022/10/04 12:13:22;;;;;;;;;;;;;;;;;;5070889;28;19936;-78
2022/10/04 12:16:07;;;;;;;;;;;;;;;;;;5040310;28;20589;-79
2022/10/04 12:18:50;;;;;;;;;;;;;;;;;;5061305;28;19928;-78
2022/10/04 12:21:18;;;;;;;;;;;;;;;;;;5067842;28;19927;-78
2022/10/04 12:24:03;;;;;;;;;;;;;;;;;;5072473;28;20012;-78
2022/10/04 12:26:31;;;;;;;;;;;;;;;;;;5074317;28;19940;-80
2022/10/04 12:29:02;;;;;;;;;;;;;;;;;;5072883;28;20237;-80
2022/10/04 12:31:27;;;;;;;;;;;;;;;;;;5073826;28;20435;-80
2022/10/04 12:34:02;;;;;;;;;;;;;;;;;;5072113;28;19959;-81
2022/10/04 12:36:27;;;;;;;;;;;;;;;;;;5072813;28;19917;-80
2022/10/04 12:38:53;;;;;;;;;;;;;;;;;;5072996;28;20341;-79
2022/10/04 12:41:30;;;;;;;;;;;;;;;;;;5073037;28;19946;-79
2022/10/04 12:43:59;;;;;;;;;;;;;;;;;;5074232;28;19931;-80
2022/10/04 12:46:25;;;;;;;;;;;;;;;;;;5074332;28;19916;-79
2022/10/04 12:49:09;;;;;;;;;;;;;;;;;;5073959;28;19947;-80
2022/10/04 12:51:48;;;;;;;;;;;;;;;;;;5057709;28;19924;-80
2022/10/04 12:54:14;;;;;;;;;;;;;;;;;;5075177;28;20322;-81
2022/10/04 12:56:39;;;;;;;;;;;;;;;;;;5074408;28;19916;-80
2022/10/04 12:59:24;;;;;;;;;;;;;;;;;;5074358;28;19917;-80
2022/10/04 13:02:00;;;;;;;;;;;;;;;;;;5075368;28;19923;-79
2022/10/04 13:04:34;;;;;;;;;;;;;;;;;;5073971;28;19970;-83
2022/10/04 13:07:18;;;;;;;;;;;;;;;;;;5075357;28;19930;-81
2022/10/04 13:09:47;;;;;;;;;;;;;;;;;;5075586;28;19912;-81
2022/10/04 13:12:37;;;;;;;;;;;;;;;;;;5075463;28;20293;-79
2022/10/04 13:15:03;;;;;;;;;;;;;;;;;;5073922;28;19916;-82
2022/10/04 13:17:43;;;;;;;;;;;;;;;;;;5074097;28;19922;-81
2022/10/04 13:20:21;;;;;;;;;;;;;;;;;;5074799;28;20334;-81
2022/10/04 13:22:52;;;;;;;;;;;;;;;;;;5074834;28;20373;-80
2022/10/04 13:25:36;;;;;;;;;;;;;;;;;;5075489;28;20329;-80
2022/10/04 13:28:10;;;;;;;;;;;;;;;;;;5074598;28;19916;-81
2022/10/04 13:30:35;;;;;;;;;;;;;;;;;;5074819;28;20254;-81
2022/10/04 13:33:17;;;;;;;;;;;;;;;;;;5075078;28;19916;-81
2022/10/04 13:35:42;;;;;;;;;;;;;;;;;;5073870;28;19966;-81
2022/10/04 13:38:11;;;;;;;;;;;;;;;;;;5073877;28;20310;-82
2022/10/04 13:40:36;;;;;;;;;;;;;;;;;;5073940;28;19948;-80
2022/10/04 13:43:08;;;;;;;;;;;;;;;;;;5074957;28;19924;-81
2022/10/04 13:45:55;;;;;;;;;;;;;;;;;;5073534;28;19989;-80
2022/10/04 13:48:33;;;;;;;;;;;;;;;;;;5073207;28;19917;-82
2022/10/04 13:51:17;;;;;;;;;;;;;;;;;;5074350;28;19923;-82
2022/10/04 13:56:43;;;;;;;;;;;;;;;;;;5074490;28;19985;-79
2022/10/04 13:59:28;;;;;;;;;;;;;;;;;;5073052;28;19922;-80
2022/10/04 14:02:09;;;;;;;;;;;;;;;;;;5074148;28;20050;-79
2022/10/04 14:04:56;;;;;;;;;;;;;;;;;;5074381;28;19987;-78
2022/10/04 14:07:36;;;;;;;;;;;;;;;;;;5074246;28;19982;-78
2022/10/04 14:10:08;;;;;;;;;;;;;;;;;;5073186;28;19920;-78
2022/10/04 14:12:37;;;;;;;;;;;;;;;;;;5074599;28;20306;-78
2022/10/04 14:15:03;;;;;;;;;;;;;;;;;;5074174;28;19932;-78
2022/10/04 14:17:37;;;;;;;;;;;;;;;;;;5074009;28;19928;-78
2022/10/04 14:20:16;;;;;;;;;;;;;;;;;;5074562;28;19921;-80
2022/10/04 14:23:00;;;;;;;;;;;;;;;;;;5056470;28;19923;-78
2022/10/04 14:25:44;;;;;;;;;;;;;;;;;;5074161;28;19912;-78
2022/10/04 14:28:30;;;;;;;;;;;;;;;;;;5074597;28;19917;-79
2022/10/04 14:31:16;;;;;;;;;;;;;;;;;;5074905;28;20292;-80
2022/10/04 14:34:00;;;;;;;;;;;;;;;;;;5074033;28;19917;-78
2022/10/04 14:36:31;;;;;;;;;;;;;;;;;;5074250;28;19962;-77
2022/10/04 14:38:57;;;;;;;;;;;;;;;;;;5074277;28;20399;-77
2022/10/04 14:41:39;;;;;;;;;;;;;;;;;;5073996;28;19917;-77
2022/10/04 14:44:32;;;;;;;;;;;;;;;;;;;;;
2022/10/04 14:47:12;;;;;;;;;;;;;;;;;;5075473;28;19927;-85
2022/10/04 14:49:52;;;;;;;;;;;;;;;;;;5056258;28;20015;-80
2022/10/04 14:52:19;;;;;;;;;;;;;;;;;;5073736;28;20015;-80
2022/10/04 14:55:03;;;;;;;;;;;;;;;;;;5078128;28;19916;-79
2022/10/04 14:57:48;;;;;;;;;;;;;;;;;;5077884;28;19921;-80
2022/10/04 15:00:14;;;;;;;;;;;;;;;;;;5077573;28;20362;-80
2022/10/04 15:02:46;;;;;;;;;;;;;;;;;;5077756;28;19963;-82
2022/10/04 15:05:18;;;;;;;;;;;;;;;;;;5076509;28;19970;-82
2022/10/04 15:07:48;;;;;;;;;;;;;;;;;;5077428;28;20007;-80
2022/10/04 15:10:26;;;;;;;;;;;;;;;;;;5077568;28;19916;-80
2022/10/04 15:12:57;;;;;;;;;;;;;;;;;;5077534;28;19924;-80
2022/10/04 15:15:37;;;;;;;;;;;;;;;;;;5077270;28;19924;-82
2022/10/04 15:18:04;;;;;;;;;;;;;;;;;;5076184;28;19920;-81
2022/10/04 15:20:52;;;;;;;;;;;;;;;;;;5077388;28;20400;-80
2022/10/04 15:23:25;;;;;;;;;;;;;;;;;;5069828;28;19917;-81
2022/10/04 15:26:03;;;;;;;;;;;;;;;;;;5077465;28;19917;-79
2022/10/04 15:28:37;;;;;;;;;;;;;;;;;;5077785;28;20066;-81
2022/10/04 15:31:05;;;;;;;;;;;;;;;;;;5078756;28;19916;-79
2022/10/04 15:33:38;;;;;;;;;;;;;;;;;;5070170;28;19984;-79
2022/10/04 15:36:16;;;;;;;;;;;;;;;;;;5092562;28;19901;-80
2022/10/04 15:39:00;;;;;;;;;;;;;;;;;;5086576;28;19904;-80
2022/10/04 15:41:34;;;;;;;;;;;;;;;;;;5089127;28;19920;-79
2022/10/04 15:44:10;;;;;;;;;;;;;;;;;;5094367;28;20234;-81
2022/10/04 15:47:01;;;;;;;;;;;;;;;;;;5081454;28;19938;-80
2022/10/04 15:49:36;;;;;;;;;;;;;;;;;;5073986;28;19917;-83
2022/10/04 15:52:10;;;;;;;;;;;;;;;;;;5076957;28;19917;-81
2022/10/04 15:54:54;;;;;;;;;;;;;;;;;;5076823;28;20345;-84
2022/10/04 15:57:30;;;;;;;;;;;;;;;;;;5076775;28;19960;-83
2022/10/04 16:00:07;;;;;;;;;;;;;;;;;;5076702;28;19923;-80
2022/10/04 16:02:33;;;;;;;;;;;;;;;;;;5075431;28;20073;-82
2022/10/04 16:05:18;;;;;;;;;;;;;;;;;;5075710;28;19913;-81
2022/10/04 16:07:57;;;;;;;;;;;;;;;;;;5077051;28;19985;-80
2022/10/04 16:10:25;;;;;;;;;;;;;;;;;;5075303;28;19912;-81
2022/10/04 16:12:53;;;;;;;;;;;;;;;;;;5075654;28;20303;-81
2022/10/04 16:15:19;;;;;;;;;;;;;;;;;;5076666;28;19958;-82
2022/10/04 16:18:04;;;;;;;;;;;;;;;;;;5058654;28;19968;-80
2022/10/04 16:20:48;;;;;;;;;;;;;;;;;;5076282;28;19924;-80
2022/10/04 16:23:26;;;;;;;;;;;;;;;;;;5076346;28;20195;-82
2022/10/04 16:25:52;;;;;;;;;;;;;;;;;;5076200;28;19916;-82
2022/10/04 16:28:21;;;;;;;;;;;;;;;;;;5074821;28;20401;-85
2022/10/04 16:30:57;;;;;;;;;;;;;;;;;;5059008;28;19920;-84
2022/10/04 16:33:30;;;;;;;;;;;;;;;;;;5058495;28;20020;-84
2022/10/04 16:36:01;;;;;;;;;;;;;;;;;;5058992;28;20288;-86
2022/10/04 16:38:27;;;;;;;;;;;;;;;;;;5075216;28;19927;-86
2022/10/04 16:40:58;;;;;;;;;;;;;;;;;;5076968;28;19916;-84
2022/10/04 16:43:25;;;;;;;;;;;;;;;;;;5090810;28;20308;-86
2022/10/04 16:46:09;;;;;;;;;;;;;;;;;;5079765;28;19955;-86
2022/10/04 16:48:57;;;;;;;;;;;;;;;;;;5095023;28;19916;-86
2022/10/04 16:51:22;;;;;;;;;;;;;;;;;;5079118;28;20331;-87
2022/10/04 16:54:06;;;;;;;;;;;;;;;;;;5104969;28;19916;-86
2022/10/04 16:56:52;;;;;;;;;;;;;;;;;;5105979;28;19923;-86
2022/10/04 16:59:37;;;;;;;;;;;;;;;;;;5097405;28;19924;-86
2022/10/04 17:02:22;;;;;;;;;;;;;;;;;;5096343;28;19923;-86
2022/10/04 17:05:02;;;;;;;;;;;;;;;;;;5097071;28;19916;-86
2022/10/04 17:07:27;;;;;;;;;;;;;;;;;;5097952;28;20303;-86
2022/10/04 17:10:02;;;;;;;;;;;;;;;;;;5095907;28;19916;-86
2022/10/04 17:12:54;;;;;;;;;;;;;;;;;;5095846;28;19924;-87
2022/10/04 17:15:26;;;;;;;;;;;;;;;;;;5095337;28;19916;-87
2022/10/04 17:17:54;;;;;;;;;;;;;;;;;;5095754;28;19951;-87
2022/10/04 17:20:24;;;;;;;;;;;;;;;;;;5096599;28;20334;-86
2022/10/04 17:23:10;;;;;;;;;;;;;;;;;;5094149;28;19981;-85
2022/10/04 17:25:55;;;;;;;;;;;;;;;;;;5094587;28;19916;-85
2022/10/04 17:28:29;;;;;;;;;;;;;;;;;;5095642;28;20341;-86
2022/10/04 17:31:06;;;;;;;;;;;;;;;;;;5102905;28;19971;-85
2022/10/04 17:33:37;;;;;;;;;;;;;;;;;;5115538;28;19923;-87
2022/10/04 17:36:05;;;;;;;;;;;;;;;;;;5115552;28;19922;-86
2022/10/04 17:38:38;;;;;;;;;;;;;;;;;;5116169;28;19916;-87
2022/10/04 17:41:23;;;;;;;;;;;;;;;;;;5099161;28;20349;-85
2022/10/04 17:43:49;;;;;;;;;;;;;;;;;;5084432;28;19920;-84
2022/10/04 17:46:27;;;;;;;;;;;;;;;;;;5102557;28;19916;-86
2022/10/04 17:57:18;;;;;;;;;;;;;;;;;;5093764;28;19923;-86
2022/10/04 17:59:45;;;;;;;;;;;;;;;;;;5077320;28;20330;-84